createdAt,value
2022-08-16T00:00:26.390Z,84
2022-08-16T00:01:40.918Z,84
2022-08-16T00:04:25.187Z,84
2022-08-16T00:05:29.242Z,84
2022-08-16T00:06:48.750Z,84
2022-08-16T00:08:04.914Z,85
2022-08-16T00:10:52.146Z,85
2022-08-16T00:11:57.506Z,85
2022-08-16T00:13:17.063Z,85
2022-08-16T00:15:54.250Z,85
2022-08-16T00:16:58.329Z,85
2022-08-16T00:18:01.663Z,85
2022-08-16T00:19:06.655Z,85
2022-08-16T00:20:12.292Z,85
2022-08-16T00:21:15.066Z,85
2022-08-16T00:22:29.548Z,85
2022-08-16T00:23:34.529Z,85
2022-08-16T00:24:38.022Z,85
2022-08-16T00:26:34.003Z,85
2022-08-16T00:26:47.527Z,85
2022-08-16T00:27:51.738Z,85
2022-08-16T00:30:46.282Z,85
2022-08-16T00:31:59.237Z,85
2022-08-16T00:32:58.606Z,85
2022-08-16T00:34:09.898Z,85
2022-08-16T00:35:19.226Z,85
2022-08-16T00:36:33.362Z,85
2022-08-16T00:37:58.125Z,85
2022-08-16T00:40:36.531Z,85
2022-08-16T00:41:39.806Z,85
2022-08-16T00:42:43.986Z,85
2022-08-16T00:47:17.270Z,85
2022-08-16T00:48:28.912Z,85
2022-08-16T00:49:39.284Z,85
2022-08-16T00:50:43.203Z,85
2022-08-16T00:51:47.397Z,85
2022-08-16T00:52:51.797Z,85
2022-08-16T00:55:23.034Z,85
2022-08-16T00:56:56.098Z,85
2022-08-16T01:01:15.124Z,85
2022-08-16T01:02:21.769Z,85
2022-08-16T01:03:29.426Z,85
2022-08-16T01:04:39.774Z,85
2022-08-16T01:05:45.158Z,85
2022-08-16T01:07:01.516Z,85
2022-08-16T01:07:53.711Z,85
2022-08-16T01:09:05.963Z,85
2022-08-16T01:10:16.007Z,85
2022-08-16T01:11:14.430Z,85
2022-08-16T01:12:21.746Z,85
2022-08-16T01:13:32.842Z,85
2022-08-16T01:14:43.387Z,85
2022-08-16T01:15:52.530Z,85
2022-08-16T01:16:58.522Z,85
2022-08-16T01:18:32.291Z,85
2022-08-16T01:21:00.770Z,85
2022-08-16T01:22:47.216Z,85
2022-08-16T01:23:58.252Z,85
2022-08-16T01:24:44.670Z,85
2022-08-16T01:26:33.902Z,85
2022-08-16T01:30:49.397Z,85
2022-08-16T01:31:58.507Z,85
2022-08-16T01:33:14.873Z,85
2022-08-16T01:35:52.227Z,85
2022-08-16T01:36:55.168Z,85
2022-08-16T01:38:19.586Z,85
2022-08-16T01:39:23.423Z,85
2022-08-16T01:40:27.477Z,85
2022-08-16T01:41:35.262Z,85
2022-08-16T01:44:54.301Z,85
2022-08-16T01:45:58.625Z,86
2022-08-16T01:47:34.485Z,86
2022-08-16T01:48:38.726Z,86
2022-08-16T01:50:40.825Z,86
2022-08-16T01:51:08.638Z,85
2022-08-16T01:51:56.949Z,85
2022-08-16T01:53:24.930Z,85
2022-08-16T01:54:30.766Z,85
2022-08-16T01:56:03.706Z,85
2022-08-16T01:57:10.685Z,85
2022-08-16T02:00:10.542Z,86
2022-08-16T02:01:12.900Z,85
2022-08-16T02:02:28.437Z,85
2022-08-16T02:05:24.194Z,86
2022-08-16T02:06:34.015Z,86
2022-08-16T02:07:32.622Z,86
2022-08-16T02:08:37.921Z,85
2022-08-16T02:10:02.429Z,85
2022-08-16T02:11:12.049Z,85
2022-08-16T02:14:17.894Z,85
2022-08-16T02:15:29.096Z,85
2022-08-16T02:16:33.337Z,86
2022-08-16T02:19:58.311Z,86
2022-08-16T02:20:42.673Z,86
2022-08-16T02:22:08.024Z,86
2022-08-16T02:22:51.266Z,86
2022-08-16T02:24:04.037Z,86
2022-08-16T02:25:09.819Z,86
2022-08-16T02:27:36.941Z,86
2022-08-16T02:28:45.258Z,86
2022-08-16T02:29:51.449Z,86
2022-08-16T02:31:05.854Z,86
2022-08-16T02:32:49.577Z,86
2022-08-16T02:33:42.971Z,86
2022-08-16T02:34:48.125Z,86
2022-08-16T02:35:54.166Z,86
2022-08-16T02:36:57.713Z,85
2022-08-16T02:38:08.746Z,86
2022-08-16T02:39:11.404Z,86
2022-08-16T02:40:16.285Z,86
2022-08-16T02:41:29.945Z,86
2022-08-16T02:42:34.625Z,86
2022-08-16T02:43:39.309Z,86
2022-08-16T02:44:49.082Z,86
2022-08-16T02:46:10.453Z,86
2022-08-16T02:47:24.829Z,86
2022-08-16T02:50:53.329Z,86
2022-08-16T02:51:15.596Z,86
2022-08-16T02:52:24.602Z,86
2022-08-16T02:53:27.196Z,86
2022-08-16T02:54:31.578Z,86
2022-08-16T02:56:10.785Z,86
2022-08-16T02:57:14.929Z,86
2022-08-16T02:58:19.121Z,86
2022-08-16T03:01:24.203Z,86
2022-08-16T03:02:31.678Z,86
2022-08-16T03:04:24.918Z,86
2022-08-16T03:05:00.013Z,86
2022-08-16T03:06:04.204Z,86
2022-08-16T03:07:14.549Z,86
2022-08-16T03:08:35.637Z,86
2022-08-16T03:09:29.881Z,86
2022-08-16T03:10:34.191Z,86
2022-08-16T03:11:53.030Z,85
2022-08-16T03:13:12.926Z,86
2022-08-16T03:14:20.970Z,86
2022-08-16T03:15:33.649Z,86
2022-08-16T03:16:42.007Z,86
2022-08-16T03:17:53.453Z,86
2022-08-16T03:18:46.296Z,86
2022-08-16T03:19:59.749Z,86
2022-08-16T03:20:55.583Z,86
2022-08-16T03:21:59.161Z,86
2022-08-16T03:23:08.645Z,86
2022-08-16T03:24:27.889Z,86
2022-08-16T03:25:23.761Z,86
2022-08-16T03:26:28.205Z,86
2022-08-16T03:27:33.019Z,86
2022-08-16T03:28:37.101Z,86
2022-08-16T03:29:42.727Z,86
2022-08-16T03:30:46.021Z,86
2022-08-16T03:31:51.614Z,86
2022-08-16T03:32:55.725Z,86
2022-08-16T03:35:40.044Z,86
2022-08-16T03:36:42.654Z,86
2022-08-16T03:38:01.446Z,86
2022-08-16T03:39:03.392Z,86
2022-08-16T03:40:08.528Z,86
2022-08-16T03:41:14.281Z,86
2022-08-16T03:42:23.170Z,86
2022-08-16T03:43:50.902Z,86
2022-08-16T03:44:44.899Z,86
2022-08-16T03:45:45.333Z,86
2022-08-16T03:47:04.048Z,86
2022-08-16T03:48:21.959Z,85
2022-08-16T03:49:35.839Z,86
2022-08-16T03:50:30.561Z,86
2022-08-16T03:51:34.610Z,86
2022-08-16T03:52:49.257Z,86
2022-08-16T03:53:57.891Z,86
2022-08-16T03:55:01.517Z,86
2022-08-16T03:57:59.205Z,86
2022-08-16T03:59:13.875Z,86
2022-08-16T04:00:20.190Z,86
2022-08-16T04:01:22.975Z,86
2022-08-16T04:02:31.217Z,86
2022-08-16T04:03:44.235Z,86
2022-08-16T04:06:38.340Z,86
2022-08-16T04:07:48.977Z,86
2022-08-16T04:09:03.621Z,86
2022-08-16T04:10:35.663Z,86
2022-08-16T04:11:11.984Z,86
2022-08-16T04:13:59.849Z,86
2022-08-16T04:14:51.782Z,86
2022-08-16T04:16:01.229Z,86
2022-08-16T04:17:06.667Z,86
2022-08-16T04:18:15.984Z,86
2022-08-16T04:19:35.069Z,86
2022-08-16T04:20:49.588Z,86
2022-08-16T04:22:13.988Z,86
2022-08-16T04:23:20.149Z,86
2022-08-16T04:24:28.722Z,86
2022-08-16T04:25:38.737Z,86
2022-08-16T04:27:15.404Z,86
2022-08-16T04:28:28.834Z,86
2022-08-16T04:29:43.299Z,86
2022-08-16T04:30:44.672Z,86
2022-08-16T04:33:30.056Z,86
2022-08-16T04:34:34.305Z,86
2022-08-16T04:35:49.634Z,86
2022-08-16T04:37:02.088Z,86
2022-08-16T04:38:10.511Z,86
2022-08-16T04:41:15.981Z,86
2022-08-16T04:42:26.077Z,86
2022-08-16T04:43:35.293Z,86
2022-08-16T04:44:52.929Z,86
2022-08-16T04:45:43.812Z,86
2022-08-16T04:47:01.647Z,86
2022-08-16T04:48:21.911Z,86
2022-08-16T04:49:38.341Z,86
2022-08-16T04:50:37.953Z,86
2022-08-16T04:51:53.761Z,86
2022-08-16T04:52:51.433Z,86
2022-08-16T04:53:55.763Z,86
2022-08-16T04:56:25.101Z,86
2022-08-16T04:58:00.100Z,86
2022-08-16T04:59:04.348Z,86
2022-08-16T05:00:25.359Z,86
2022-08-16T05:01:19.237Z,86
2022-08-16T05:02:40.911Z,86
2022-08-16T05:04:52.293Z,86
2022-08-16T05:05:59.272Z,86
2022-08-16T05:08:47.256Z,87
2022-08-16T05:09:49.158Z,87
2022-08-16T05:10:52.593Z,87
2022-08-16T05:12:18.340Z,86
2022-08-16T05:13:51.922Z,87
2022-08-16T05:15:01.638Z,87
2022-08-16T05:16:01.476Z,87
2022-08-16T05:17:05.854Z,86
2022-08-16T05:18:15.769Z,86
2022-08-16T05:19:36.728Z,86
2022-08-16T05:20:45.619Z,86
2022-08-16T05:21:50.210Z,87
2022-08-16T05:24:46.639Z,87
2022-08-16T05:25:52.805Z,87
2022-08-16T05:26:59.224Z,87
2022-08-16T05:28:03.428Z,87
2022-08-16T05:29:07.557Z,87
2022-08-16T05:30:35.423Z,87
2022-08-16T05:31:15.821Z,87
2022-08-16T05:32:32.224Z,87
2022-08-16T05:33:29.713Z,87
2022-08-16T05:34:33.850Z,87
2022-08-16T05:37:24.368Z,87
2022-08-16T05:38:31.225Z,87
2022-08-16T05:39:33.303Z,87
2022-08-16T05:40:57.367Z,87
2022-08-16T05:43:25.821Z,87
2022-08-16T05:44:30.080Z,87
2022-08-16T05:45:34.229Z,86
2022-08-16T05:46:43.509Z,87
2022-08-16T05:47:43.120Z,86
2022-08-16T05:48:54.777Z,86
2022-08-16T05:49:51.265Z,86
2022-08-16T05:50:55.265Z,86
2022-08-16T05:51:59.285Z,86
2022-08-16T05:53:03.372Z,86
2022-08-16T05:54:07.638Z,86
2022-08-16T05:55:11.690Z,86
2022-08-16T05:56:19.379Z,86
2022-08-16T05:57:25.105Z,85
2022-08-16T05:58:32.115Z,86
2022-08-16T05:59:33.460Z,85
2022-08-16T06:00:37.604Z,85
2022-08-16T06:01:41.893Z,85
2022-08-16T06:02:45.972Z,85
2022-08-16T06:03:50.172Z,86
2022-08-16T06:04:54.445Z,85
2022-08-16T06:06:00.514Z,85
2022-08-16T06:07:06.156Z,85
2022-08-16T06:08:06.842Z,85
2022-08-16T06:09:11.078Z,85
2022-08-16T06:10:15.285Z,85
2022-08-16T06:11:19.533Z,84
2022-08-16T06:12:26.496Z,84
2022-08-16T06:13:28.013Z,84
2022-08-16T06:14:32.613Z,84
2022-08-16T06:15:37.066Z,84
2022-08-16T06:16:41.377Z,84
2022-08-16T06:17:45.693Z,84
2022-08-16T06:18:50.438Z,84
2022-08-16T06:19:54.421Z,84
2022-08-16T06:21:00.041Z,84
2022-08-16T06:22:02.983Z,84
2022-08-16T06:25:09.037Z,83
2022-08-16T06:26:14.429Z,83
2022-08-16T06:27:18.735Z,82
2022-08-16T06:28:35.130Z,83
2022-08-16T06:29:41.240Z,83
2022-08-16T06:30:57.641Z,82
2022-08-16T06:32:27.017Z,82
2022-08-16T06:33:40.368Z,80
2022-08-16T06:34:56.308Z,81
2022-08-16T06:35:43.378Z,80
2022-08-16T06:36:49.317Z,80
2022-08-16T06:37:53.661Z,80
2022-08-16T06:39:02.224Z,79
2022-08-16T06:40:16.575Z,79
2022-08-16T06:41:20.798Z,79
2022-08-16T06:42:30.065Z,79
2022-08-16T06:43:39.583Z,80
2022-08-16T06:46:09.743Z,79
2022-08-16T06:47:53.977Z,79
2022-08-16T06:48:42.768Z,78
2022-08-16T06:51:45.815Z,78
2022-08-16T06:53:08.204Z,78
2022-08-16T06:55:20.009Z,76
2022-08-16T06:56:24.073Z,75
2022-08-16T06:57:29.269Z,75
2022-08-16T07:00:24.517Z,75
2022-08-16T07:01:21.475Z,74
2022-08-16T07:02:51.254Z,74
2022-08-16T07:05:27.145Z,73
2022-08-16T07:06:27.055Z,73
2022-08-16T07:07:34.318Z,73
2022-08-16T07:11:46.376Z,73
2022-08-16T07:13:03.704Z,73
2022-08-16T07:14:25.441Z,73
2022-08-16T07:15:26.837Z,73
2022-08-16T07:16:31.271Z,74
2022-08-16T07:17:35.540Z,72
2022-08-16T07:18:40.133Z,73
2022-08-16T07:20:02.287Z,72
2022-08-16T07:21:08.264Z,72
2022-08-16T07:22:36.880Z,72
2022-08-16T07:23:35.003Z,73
2022-08-16T07:26:25.009Z,71
2022-08-16T07:27:27.341Z,70
2022-08-16T07:28:43.716Z,70
2022-08-16T07:29:55.487Z,70
2022-08-16T07:31:02.106Z,70
2022-08-16T07:32:16.609Z,69
2022-08-16T07:33:53.023Z,69
2022-08-16T07:34:54.474Z,69
2022-08-16T07:35:59.653Z,68
2022-08-16T07:37:04.473Z,68
2022-08-16T07:38:08.760Z,68
2022-08-16T07:39:15.121Z,68
2022-08-16T07:40:24.876Z,68
2022-08-16T07:41:23.604Z,69
2022-08-16T07:42:28.777Z,69
2022-08-16T07:43:43.375Z,68
2022-08-16T07:44:51.981Z,68
2022-08-16T07:45:58.425Z,69
2022-08-16T07:48:37.221Z,68
2022-08-16T07:49:49.823Z,68
2022-08-16T07:50:55.344Z,67
2022-08-16T07:51:56.105Z,67
2022-08-16T07:53:03.233Z,66
2022-08-16T07:54:32.463Z,67
2022-08-16T07:55:30.233Z,67
2022-08-16T07:56:37.223Z,67
2022-08-16T07:57:44.497Z,67
2022-08-16T07:58:45.470Z,66
2022-08-16T08:00:20.292Z,66
2022-08-16T08:01:24.665Z,65
2022-08-16T08:02:28.805Z,65
2022-08-16T08:05:16.610Z,65
2022-08-16T08:06:20.858Z,64
2022-08-16T08:07:32.482Z,63
2022-08-16T08:08:49.904Z,63
2022-08-16T08:09:57.090Z,63
2022-08-16T08:11:08.965Z,63
2022-08-16T08:12:14.028Z,63
2022-08-16T08:13:28.953Z,63
2022-08-16T08:14:29.537Z,62
2022-08-16T08:15:37.105Z,61
2022-08-16T08:16:45.232Z,61
2022-08-16T08:17:45.298Z,61
2022-08-16T08:20:36.035Z,60
2022-08-16T08:23:35.329Z,60
2022-08-16T08:24:43.974Z,60
2022-08-16T08:25:52.033Z,60
2022-08-16T08:27:00.505Z,60
2022-08-16T08:28:10.904Z,58
2022-08-16T08:30:50.900Z,57
2022-08-16T08:31:51.439Z,57
2022-08-16T08:32:58.939Z,58
2022-08-16T08:34:00.533Z,57
2022-08-16T08:35:04.766Z,57
2022-08-16T08:36:09.097Z,57
2022-08-16T08:37:13.364Z,57
2022-08-16T08:38:42.279Z,57
2022-08-16T08:39:22.675Z,57
2022-08-16T08:40:27.685Z,57
2022-08-16T08:41:31.754Z,57
2022-08-16T08:42:38.225Z,57
2022-08-16T08:44:28.171Z,58
2022-08-16T08:45:43.325Z,57
2022-08-16T08:46:26.788Z,57
2022-08-16T08:47:36.629Z,57
2022-08-16T08:48:59.355Z,58
2022-08-16T08:49:58.142Z,58
2022-08-16T08:51:20.017Z,58
2022-08-16T08:52:40.717Z,58
2022-08-16T08:53:44.145Z,57
2022-08-16T08:54:50.488Z,58
2022-08-16T08:55:58.927Z,58
2022-08-16T08:56:58.083Z,57
2022-08-16T08:58:12.520Z,57
2022-08-16T08:59:19.986Z,57
2022-08-16T09:00:50.287Z,57
2022-08-16T09:01:42.561Z,57
2022-08-16T09:02:45.590Z,57
2022-08-16T09:04:03.525Z,57
2022-08-16T09:05:15.091Z,57
2022-08-16T09:07:54.848Z,57
2022-08-16T09:08:57.704Z,57
2022-08-16T09:10:06.952Z,58
2022-08-16T09:11:08.828Z,59
2022-08-16T09:12:31.307Z,58
2022-08-16T09:13:17.332Z,58
2022-08-16T09:14:38.228Z,58
2022-08-16T09:15:42.845Z,58
2022-08-16T09:18:25.591Z,59
2022-08-16T09:19:32.123Z,58
2022-08-16T09:20:30.174Z,57
2022-08-16T09:21:39.390Z,58
2022-08-16T09:22:57.628Z,59
2022-08-16T09:24:01.728Z,59
2022-08-16T09:25:12.447Z,59
2022-08-16T09:26:43.145Z,58
2022-08-16T09:27:19.656Z,58
2022-08-16T09:28:38.174Z,58
2022-08-16T09:29:44.662Z,58
2022-08-16T09:30:33.986Z,58
2022-08-16T09:33:32.584Z,57
2022-08-16T09:34:48.028Z,56
2022-08-16T09:35:52.959Z,56
2022-08-16T09:37:02.684Z,57
2022-08-16T09:38:08.555Z,57
2022-08-16T09:39:15.886Z,56
2022-08-16T09:40:42.483Z,56
2022-08-16T09:41:40.696Z,57
2022-08-16T09:42:55.805Z,57
2022-08-16T09:43:53.519Z,57
2022-08-16T09:45:10.040Z,56
2022-08-16T09:46:02.819Z,56
2022-08-16T09:47:10.221Z,57
2022-08-16T09:48:11.248Z,57
2022-08-16T09:49:15.630Z,56
2022-08-16T09:50:33.432Z,56
2022-08-16T09:51:36.686Z,56
2022-08-16T09:53:14.930Z,55
2022-08-16T09:54:16.668Z,54
2022-08-16T09:55:25.656Z,54
2022-08-16T09:58:00.832Z,53
2022-08-16T09:59:07.447Z,54
2022-08-16T10:00:42.913Z,55
2022-08-16T10:01:14.136Z,55
2022-08-16T10:02:28.908Z,54
2022-08-16T10:03:33.150Z,55
2022-08-16T10:04:43.101Z,55
2022-08-16T10:05:57.077Z,55
2022-08-16T10:07:12.149Z,56
2022-08-16T10:08:19.002Z,55
2022-08-16T10:11:13.502Z,55
2022-08-16T10:12:55.508Z,54
2022-08-16T10:14:02.191Z,54
2022-08-16T10:17:06.907Z,54
2022-08-16T10:18:53.964Z,53
2022-08-16T10:19:25.436Z,53
2022-08-16T10:20:45.076Z,53
2022-08-16T10:22:23.080Z,55
2022-08-16T10:23:25.260Z,54
2022-08-16T10:24:29.534Z,54
2022-08-16T10:26:59.371Z,53
2022-08-16T10:26:59.425Z,53
2022-08-16T10:28:28.448Z,53
2022-08-16T10:29:19.800Z,52
2022-08-16T10:30:25.388Z,52
2022-08-16T10:31:43.326Z,51
2022-08-16T10:32:32.810Z,51
2022-08-16T10:33:40.091Z,52
2022-08-16T10:34:41.172Z,51
2022-08-16T10:35:46.348Z,52
2022-08-16T10:36:54.163Z,52
2022-08-16T10:37:53.535Z,52
2022-08-16T10:38:57.600Z,51
2022-08-16T10:40:01.671Z,51
2022-08-16T10:41:06.755Z,51
2022-08-16T10:42:09.775Z,51
2022-08-16T10:43:24.069Z,51
2022-08-16T10:44:28.297Z,52
2022-08-16T10:45:36.853Z,53
2022-08-16T10:48:29.458Z,51
2022-08-16T10:49:33.298Z,51
2022-08-16T10:50:37.527Z,51
2022-08-16T10:52:02.183Z,50
2022-08-16T10:53:04.999Z,50
2022-08-16T10:55:46.728Z,50
2022-08-16T10:56:53.149Z,49
2022-08-16T10:57:54.943Z,50
2022-08-16T10:59:32.469Z,49
2022-08-16T11:00:05.323Z,49
2022-08-16T11:01:40.297Z,49
2022-08-16T11:03:00.068Z,49
2022-08-16T11:03:44.718Z,49
2022-08-16T11:06:06.483Z,47
2022-08-16T11:07:43.206Z,49
2022-08-16T11:08:13.363Z,48
2022-08-16T11:09:21.766Z,48
2022-08-16T11:10:59.164Z,48
2022-08-16T11:15:18.523Z,48
2022-08-16T11:17:34.016Z,49
2022-08-16T11:18:49.266Z,48
2022-08-16T11:21:28.399Z,49
2022-08-16T11:22:39.833Z,48
2022-08-16T11:25:12.258Z,47
2022-08-16T11:27:48.029Z,48
2022-08-16T11:31:58.835Z,47
2022-08-16T11:33:03.052Z,47
2022-08-16T11:34:07.260Z,47
2022-08-16T11:35:14.460Z,47
2022-08-16T11:36:36.699Z,47
2022-08-16T11:38:24.126Z,47
2022-08-16T11:38:58.886Z,48
2022-08-16T11:40:25.075Z,47
2022-08-16T11:41:31.039Z,48
2022-08-16T11:42:37.510Z,48
2022-08-16T11:47:17.113Z,48
2022-08-16T11:49:52.190Z,48
2022-08-16T11:50:56.411Z,48
2022-08-16T11:52:10.731Z,48
2022-08-16T11:53:15.249Z,48
2022-08-16T11:54:33.171Z,47
2022-08-16T11:55:33.759Z,48
2022-08-16T11:56:39.966Z,48
2022-08-16T11:57:42.456Z,48
2022-08-16T11:58:51.631Z,48
2022-08-16T12:00:00.911Z,48
2022-08-16T12:01:29.505Z,48
2022-08-16T12:02:30.785Z,47
2022-08-16T12:03:35.020Z,47
2022-08-16T12:05:59.315Z,47
2022-08-16T12:07:03.536Z,46
2022-08-16T12:08:07.884Z,46
2022-08-16T12:09:22.460Z,47
2022-08-16T12:10:27.903Z,47
2022-08-16T12:11:41.528Z,47
2022-08-16T12:14:59.281Z,45
2022-08-16T12:16:09.154Z,46
2022-08-16T12:17:13.062Z,48
2022-08-16T12:18:20.435Z,48
2022-08-16T12:19:23.499Z,47
2022-08-16T12:22:18.801Z,45
2022-08-16T12:23:21.203Z,45
2022-08-16T12:24:26.455Z,44
2022-08-16T12:27:05.713Z,44
2022-08-16T12:28:09.851Z,45
2022-08-16T12:29:14.095Z,44
2022-08-16T12:30:31.134Z,44
2022-08-16T12:31:34.023Z,44
2022-08-16T12:35:43.507Z,44
2022-08-16T12:36:47.915Z,45
2022-08-16T12:41:12.511Z,46
2022-08-16T12:42:19.091Z,45
2022-08-16T12:44:58.647Z,46
2022-08-16T12:46:06.031Z,46
2022-08-16T12:47:10.337Z,46
2022-08-16T12:50:14.818Z,46
2022-08-16T12:51:20.155Z,46
2022-08-16T12:52:33.286Z,46
2022-08-16T12:55:10.170Z,46
2022-08-16T12:56:14.439Z,45
2022-08-16T12:57:39.035Z,45
2022-08-16T12:58:47.267Z,45
2022-08-16T12:59:48.426Z,45
2022-08-16T13:00:52.846Z,45
2022-08-16T13:02:04.047Z,44
2022-08-16T13:03:19.165Z,45
2022-08-16T13:04:34.922Z,46
2022-08-16T13:05:39.249Z,45
2022-08-16T13:09:57.567Z,45
2022-08-16T13:11:01.830Z,45
2022-08-16T13:12:09.623Z,46
2022-08-16T13:14:44.596Z,46
2022-08-16T13:15:51.846Z,45
2022-08-16T13:16:53.134Z,45
2022-08-16T13:18:27.268Z,45
2022-08-16T13:19:16.873Z,45
2022-08-16T13:22:06.402Z,45
2022-08-16T13:25:08.827Z,44
2022-08-16T13:26:17.429Z,44
2022-08-16T13:27:59.064Z,44
2022-08-16T13:28:48.535Z,44
2022-08-16T13:29:57.364Z,44
2022-08-16T13:31:03.169Z,45
2022-08-16T13:32:06.527Z,44
2022-08-16T13:33:18.327Z,44
2022-08-16T13:34:23.023Z,44
2022-08-16T13:35:34.489Z,44
2022-08-16T13:36:50.137Z,44
2022-08-16T13:39:29.422Z,45
2022-08-16T13:42:28.907Z,46
2022-08-16T13:45:15.734Z,46
2022-08-16T13:46:39.866Z,46
2022-08-16T13:47:54.320Z,46
2022-08-16T13:49:08.818Z,47
2022-08-16T13:50:12.926Z,46
2022-08-16T13:51:18.181Z,46
2022-08-16T13:52:21.502Z,47
2022-08-16T13:53:25.730Z,46
2022-08-16T13:54:31.756Z,47
2022-08-16T13:55:34.491Z,47
2022-08-16T13:56:39.879Z,47
2022-08-16T13:57:53.862Z,47
2022-08-16T13:58:54.653Z,47
2022-08-16T13:59:51.716Z,47
2022-08-16T14:00:55.839Z,47
2022-08-16T14:02:02.542Z,46
2022-08-16T14:03:04.435Z,46
2022-08-16T14:04:08.618Z,47
2022-08-16T14:05:22.179Z,46
2022-08-16T14:06:26.606Z,47
2022-08-16T14:07:41.082Z,47
2022-08-16T14:08:58.989Z,46
2022-08-16T14:09:56.221Z,46
2022-08-16T14:11:11.909Z,46
2022-08-16T14:12:25.235Z,46
2022-08-16T14:13:46.855Z,45
2022-08-16T14:14:53.447Z,46
2022-08-16T14:15:55.654Z,46
2022-08-16T14:17:05.036Z,46
2022-08-16T14:19:49.338Z,46
2022-08-16T14:20:53.766Z,46
2022-08-16T14:22:15.020Z,47
2022-08-16T14:26:22.371Z,46
2022-08-16T14:27:28.094Z,46
2022-08-16T14:28:34.403Z,46
2022-08-16T14:29:38.524Z,46
2022-08-16T14:30:42.442Z,46
2022-08-16T14:31:46.684Z,46
2022-08-16T14:33:12.970Z,45
2022-08-16T14:34:34.502Z,46
2022-08-16T14:37:29.165Z,47
2022-08-16T14:40:08.575Z,46
2022-08-16T14:41:15.686Z,46
2022-08-16T14:42:19.791Z,47
2022-08-16T14:43:24.154Z,47
2022-08-16T14:44:34.418Z,47
2022-08-16T14:47:13.443Z,47
2022-08-16T14:48:21.656Z,47
2022-08-16T14:49:44.102Z,47
2022-08-16T14:52:13.982Z,47
2022-08-16T14:53:18.214Z,47
2022-08-16T14:56:07.698Z,47
2022-08-16T14:57:12.194Z,46
2022-08-16T14:58:19.042Z,46
2022-08-16T14:59:21.992Z,46
2022-08-16T15:00:36.873Z,46
2022-08-16T15:03:21.213Z,47
2022-08-16T15:04:32.706Z,47
2022-08-16T15:05:32.138Z,47
2022-08-16T15:06:36.450Z,47
2022-08-16T15:09:06.542Z,47
2022-08-16T15:10:26.656Z,47
2022-08-16T15:11:30.390Z,47
2022-08-16T15:12:39.711Z,47
2022-08-16T15:13:54.202Z,47
2022-08-16T15:16:30.390Z,47
2022-08-16T15:22:14.849Z,48
2022-08-16T15:23:26.187Z,48
2022-08-16T15:24:45.863Z,48
2022-08-16T15:27:20.021Z,49
2022-08-16T15:28:30.890Z,49
2022-08-16T15:29:28.422Z,49
2022-08-16T15:32:26.355Z,48
2022-08-16T15:33:22.423Z,49
2022-08-16T15:34:46.878Z,48
2022-08-16T15:35:58.481Z,49
2022-08-16T15:40:26.932Z,54
2022-08-16T15:41:27.226Z,61
2022-08-16T15:42:31.418Z,63
2022-08-16T15:43:39.606Z,66
2022-08-16T15:47:56.820Z,67
2022-08-16T15:49:02.550Z,66
2022-08-16T15:50:07.191Z,64
2022-08-16T15:52:47.164Z,68
2022-08-16T15:54:16.402Z,67
2022-08-16T15:55:01.104Z,69
2022-08-16T15:57:37.082Z,71
2022-08-16T15:58:38.576Z,72
2022-08-16T15:59:48.306Z,71
2022-08-16T16:01:00.861Z,71
2022-08-16T16:03:34.457Z,72
2022-08-16T16:08:22.582Z,71
2022-08-16T16:09:34.820Z,71
2022-08-16T16:10:32.333Z,69
2022-08-16T16:13:32.113Z,64
2022-08-16T16:14:36.331Z,59
2022-08-16T16:15:40.486Z,59
2022-08-16T16:16:57.985Z,59
2022-08-16T16:18:05.141Z,58
2022-08-16T16:19:13.014Z,58
2022-08-16T16:20:31.093Z,57
2022-08-16T16:23:10.848Z,58
2022-08-16T16:24:21.098Z,58
2022-08-16T16:25:19.535Z,58
2022-08-16T16:26:26.792Z,58
2022-08-16T16:29:17.534Z,57
2022-08-16T16:30:45.513Z,57
2022-08-16T16:35:07.628Z,57
2022-08-16T16:36:43.520Z,57
2022-08-16T16:38:16.673Z,57
2022-08-16T16:39:22.986Z,58
2022-08-16T16:40:32.492Z,56
2022-08-16T16:43:33.156Z,56
2022-08-16T16:44:48.609Z,55
2022-08-16T16:45:45.704Z,55
2022-08-16T16:48:13.103Z,55
2022-08-16T16:50:54.081Z,54
2022-08-16T16:52:00.061Z,54
2022-08-16T16:53:02.856Z,52
2022-08-16T16:54:27.590Z,52
2022-08-16T16:55:28.764Z,54
2022-08-16T16:56:46.050Z,54
2022-08-16T16:57:57.545Z,54
2022-08-16T16:59:07.039Z,57
2022-08-16T17:02:39.074Z,59
2022-08-16T17:03:16.756Z,58
2022-08-16T17:04:19.484Z,58
2022-08-16T17:05:19.565Z,61
2022-08-16T17:06:24.981Z,61
2022-08-16T17:07:29.094Z,60
2022-08-16T17:08:40.619Z,59
2022-08-16T17:09:58.126Z,60
2022-08-16T17:11:03.358Z,60
2022-08-16T17:12:47.349Z,60
2022-08-16T17:15:45.729Z,61
2022-08-16T17:16:55.233Z,62
2022-08-16T17:18:36.986Z,62
2022-08-16T17:19:25.193Z,61
2022-08-16T17:20:29.208Z,62
2022-08-16T17:21:40.060Z,62
2022-08-16T17:22:55.573Z,64
2022-08-16T17:24:01.121Z,64
2022-08-16T17:26:55.984Z,66
2022-08-16T17:28:51.891Z,66
2022-08-16T17:29:14.581Z,66
2022-08-16T17:30:18.660Z,66
2022-08-16T17:33:18.021Z,65
2022-08-16T17:34:29.669Z,67
2022-08-16T17:35:33.603Z,67
2022-08-16T17:36:37.038Z,67
2022-08-16T17:37:42.581Z,67
2022-08-16T17:38:50.389Z,69
2022-08-16T17:40:06.076Z,69
2022-08-16T17:41:14.727Z,69
2022-08-16T17:42:19.985Z,69
2022-08-16T17:43:44.077Z,70
2022-08-16T17:44:45.013Z,70
2022-08-16T17:45:50.501Z,70
2022-08-16T17:46:55.005Z,70
2022-08-16T17:48:01.370Z,70
2022-08-16T17:49:05.822Z,71
2022-08-16T17:50:12.193Z,71
2022-08-16T17:51:16.524Z,71
2022-08-16T17:52:20.667Z,71
2022-08-16T17:55:19.057Z,71
2022-08-16T17:56:23.358Z,71
2022-08-16T17:57:37.907Z,72
2022-08-16T17:58:42.354Z,72
2022-08-16T18:00:20.156Z,73
2022-08-16T18:01:21.178Z,73
2022-08-16T18:02:43.201Z,73
2022-08-16T18:06:55.226Z,72
2022-08-16T18:07:59.590Z,72
2022-08-16T18:09:05.065Z,72
2022-08-16T18:10:14.473Z,72
2022-08-16T18:12:55.112Z,72
2022-08-16T18:14:08.310Z,70
2022-08-16T18:15:22.682Z,69
2022-08-16T18:18:17.577Z,68
2022-08-16T18:19:21.753Z,67
2022-08-16T18:20:29.071Z,67
2022-08-16T18:21:38.374Z,67
2022-08-16T18:22:47.920Z,66
2022-08-16T18:25:29.829Z,66
2022-08-16T18:26:34.410Z,66
2022-08-16T18:27:38.818Z,66
2022-08-16T18:28:54.341Z,65
2022-08-16T18:30:18.958Z,66
2022-08-16T18:31:34.612Z,66
2022-08-16T18:32:38.803Z,66
2022-08-16T18:33:51.751Z,66
2022-08-16T18:35:05.702Z,66
2022-08-16T18:38:00.549Z,64
2022-08-16T18:39:04.794Z,64
2022-08-16T18:40:29.238Z,64
2022-08-16T18:43:54.552Z,68
2022-08-16T18:44:48.282Z,70
2022-08-16T18:45:53.642Z,70
2022-08-16T18:46:58.925Z,69
2022-08-16T18:49:39.309Z,71
2022-08-16T18:50:59.543Z,71
2022-08-16T18:51:57.793Z,72
2022-08-16T18:53:01.910Z,72
2022-08-16T18:54:06.129Z,71
2022-08-16T18:55:29.694Z,71
2022-08-16T18:56:54.378Z,72
2022-08-16T18:59:50.291Z,72
2022-08-16T19:01:25.005Z,71
2022-08-16T19:02:43.178Z,71
2022-08-16T19:03:33.266Z,72
2022-08-16T19:04:48.242Z,72
2022-08-16T19:05:59.195Z,72
2022-08-16T19:07:13.624Z,73
2022-08-16T19:08:23.290Z,73
2022-08-16T19:11:12.817Z,73
2022-08-16T19:12:17.013Z,74
2022-08-16T19:13:21.717Z,74
2022-08-16T19:14:33.201Z,74
2022-08-16T19:15:42.829Z,74
2022-08-16T19:16:48.425Z,74
2022-08-16T19:17:57.861Z,74
2022-08-16T19:19:12.706Z,75
2022-08-16T19:20:23.994Z,75
2022-08-16T19:21:28.142Z,75
2022-08-16T19:22:52.311Z,75
2022-08-16T19:23:37.985Z,76
2022-08-16T19:24:59.477Z,76
2022-08-16T19:26:04.873Z,76
2022-08-16T19:27:14.223Z,76
2022-08-16T19:28:45.958Z,76
2022-08-16T19:29:30.049Z,77
2022-08-16T19:30:34.333Z,77
2022-08-16T19:31:49.003Z,77
2022-08-16T19:32:53.507Z,77
2022-08-16T19:34:02.061Z,78
2022-08-16T19:35:21.781Z,78
2022-08-16T19:36:41.337Z,79
2022-08-16T19:37:46.058Z,79
2022-08-16T19:40:25.672Z,80
2022-08-16T19:44:36.730Z,81
2022-08-16T19:45:45.467Z,81
2022-08-16T19:48:44.101Z,81
2022-08-16T19:49:48.525Z,82
2022-08-16T19:50:52.838Z,82
2022-08-16T19:52:20.369Z,83
2022-08-16T19:53:32.806Z,83
2022-08-16T19:54:40.357Z,83
2022-08-16T19:55:41.710Z,83
2022-08-16T19:56:45.970Z,83
2022-08-16T19:57:50.564Z,83
2022-08-16T20:02:23.645Z,84
2022-08-16T20:03:32.529Z,84
2022-08-16T20:04:40.066Z,84
2022-08-16T20:05:44.658Z,84
2022-08-16T20:06:48.969Z,84
2022-08-16T20:11:30.057Z,84
2022-08-16T20:12:34.962Z,84
2022-08-16T20:13:39.302Z,84
2022-08-16T20:14:43.538Z,84
2022-08-16T20:16:07.961Z,84